createdAt,value
2023-06-12T00:14:52.836Z,18.39
2023-06-12T00:29:54.559Z,15.20
2023-06-12T00:44:56.278Z,19.30
2023-06-12T00:59:58.003Z,17.99
2023-06-12T01:14:59.678Z,19.51
2023-06-12T01:30:27.963Z,18.49
2023-06-12T01:45:29.632Z,19.33
2023-06-12T02:00:31.420Z,18.73
2023-06-12T02:15:33.096Z,19.37
2023-06-12T02:30:34.729Z,17.67
2023-06-12T02:45:36.392Z,19.45
2023-06-12T03:00:38.116Z,17.32
2023-06-12T03:15:39.895Z,18.06
2023-06-12T03:30:41.562Z,18.17
2023-06-12T03:45:43.315Z,18.95
2023-06-12T04:00:49.011Z,19.51
2023-06-12T04:15:51.353Z,19.83
2023-06-12T04:30:53.092Z,18.83
2023-06-12T04:45:57.828Z,19.56
2023-06-12T05:01:02.009Z,19.62
2023-06-12T05:16:03.811Z,19.00
2023-06-12T05:31:06.601Z,18.48
2023-06-12T05:46:08.691Z,20.67
2023-06-12T06:01:12.862Z,19.34
2023-06-12T06:16:14.678Z,20.98
2023-06-12T06:31:16.519Z,20.15
2023-06-12T06:46:18.291Z,20.37
2023-06-12T07:01:20.030Z,21.60
2023-06-12T07:16:21.895Z,21.04
2023-06-12T07:31:23.714Z,21.00
2023-06-12T07:46:25.450Z,21.51
2023-06-12T08:01:27.492Z,22.09
2023-06-12T08:16:29.246Z,21.83
2023-06-12T08:31:31.156Z,21.81
2023-06-12T08:46:33.205Z,21.13
2023-06-12T09:01:35.707Z,21.05
2023-06-12T09:16:37.447Z,22.19
2023-06-12T09:31:41.954Z,19.91
2023-06-12T09:46:43.771Z,21.01
2023-06-12T10:01:54.630Z,20.35
2023-06-12T10:16:59.081Z,21.62
2023-06-12T10:32:08.857Z,20.54
2023-06-12T10:47:22.501Z,21.59
2023-06-12T11:02:24.645Z,20.46
2023-06-12T11:17:26.559Z,21.83
2023-06-12T11:32:28.332Z,20.67
2023-06-12T12:02:41.113Z,21.26
2023-06-12T12:17:44.114Z,20.23
2023-06-12T12:32:47.999Z,22.26
2023-06-12T12:47:49.909Z,20.60
2023-06-12T13:02:51.866Z,20.13
2023-06-12T13:17:54.453Z,21.40
2023-06-12T13:32:56.354Z,20.54
2023-06-12T13:47:58.170Z,21.12
2023-06-12T14:03:00.868Z,21.56
2023-06-12T14:18:04.357Z,22.04
2023-06-12T14:33:06.388Z,19.06
2023-06-12T14:48:08.123Z,20.44
2023-06-12T15:03:10.001Z,19.20
2023-06-12T15:18:12.067Z,19.63
2023-06-12T15:33:13.907Z,20.37
2023-06-12T15:48:15.893Z,17.32
2023-06-12T16:03:17.780Z,19.68
2023-06-12T16:18:19.571Z,17.93
2023-06-12T16:33:21.290Z,19.22
2023-06-12T16:48:23.016Z,17.96
2023-06-12T17:03:24.775Z,18.22
2023-06-12T17:18:27.031Z,19.73
2023-06-12T17:33:28.961Z,18.81
2023-06-12T17:48:30.967Z,18.13
2023-06-12T18:03:32.814Z,18.54
2023-06-12T18:18:34.653Z,17.19
2023-06-12T18:33:36.331Z,18.52
2023-06-12T18:48:38.063Z,17.45
2023-06-12T19:03:39.822Z,15.66
2023-06-12T19:18:41.578Z,18.88
2023-06-12T19:33:43.254Z,17.82
2023-06-12T19:48:44.974Z,17.27
2023-06-12T20:03:47.541Z,17.38
2023-06-12T20:18:49.239Z,16.60
2023-06-12T20:33:50.981Z,17.76
2023-06-12T20:48:52.950Z,18.17
2023-06-12T21:03:54.758Z,17.22
2023-06-12T21:18:56.726Z,18.21
2023-06-12T21:33:59.756Z,18.18
2023-06-12T21:49:01.454Z,16.91
2023-06-12T22:04:03.764Z,17.62
2023-06-12T22:19:08.336Z,16.48
2023-06-12T22:34:11.305Z,17.92
2023-06-12T22:49:17.228Z,16.98
2023-06-12T23:04:22.293Z,17.54
2023-06-12T23:19:26.878Z,17.38
2023-06-12T23:34:28.830Z,17.65
2023-06-12T23:49:31.704Z,15.58
